Track Васильев Кирилл

Time Latitude Longitude Accuracy (66% radius in meters) Altitude (meters) Speed (km/hour) Bearing (degrees) Battery (%) GPS flag
09:34:19 60.403523 30.324960 0 0 0 0 1 delete
09:34:18 60.403522 30.324949 0 0 0 0 1 delete
09:34:17 60.403522 30.324936 0 0 0 0 1 delete
09:34:16 60.403523 30.324924 0 0 0 0 1 delete
09:34:15 60.403523 30.324924 0 0 0 0 1 delete
09:34:08 60.403523 30.324924 0 0 0 0 1 delete
09:34:07 60.403524 30.324920 0 0 0 0 1 delete
09:34:06 60.403526 30.324915 0 0 0 0 1 delete
09:34:05 60.403528 30.324912 0 0 0 0 1 delete
09:34:04 60.403529 30.324908 0 0 0 0 1 delete
09:34:03 60.403530 30.324905 0 0 0 0 1 delete
09:34:02 60.403531 30.324903 0 0 0 0 1 delete
09:34:01 60.403532 30.324907 0 0 0 0 1 delete
09:34:00 60.403531 30.324910 0 0 0 0 1 delete
09:33:59 60.403527 30.324913 0 0 0 0 1 delete
09:33:58 60.403521 30.324915 0 0 0 0 1 delete
09:33:57 60.403515 30.324922 0 0 0 0 1 delete
09:33:56 60.403509 30.324935 0 0 0 0 1 delete
09:33:55 60.403503 30.324956 0 0 0 0 1 delete
09:33:54 60.403498 30.324982 0 0 0 0 1 delete
09:33:53 60.403497 30.325010 0 0 0 0 1 delete
09:33:52 60.403497 30.325040 0 0 0 0 1 delete
09:33:51 60.403497 30.325069 0 0 0 0 1 delete
09:33:50 60.403497 30.325100 0 0 0 0 1 delete
09:33:49 60.403498 30.325129 0 0 0 0 1 delete
09:33:48 60.403498 30.325160 0 0 0 0 1 delete
09:33:47 60.403499 30.325191 0 0 0 0 1 delete
09:33:46 60.403499 30.325222 0 0 0 0 1 delete
09:33:45 60.403501 30.325256 0 0 0 0 1 delete
09:33:44 60.403503 30.325289 0 0 0 0 1 delete
09:33:43 60.403505 30.325323 0 0 0 0 1 delete
09:33:42 60.403508 30.325357 0 0 0 0 1 delete
09:33:41 60.403510 30.325391 0 0 0 0 1 delete
09:33:40 60.403512 30.325424 0 0 0 0 1 delete
09:33:39 60.403513 30.325458 0 0 0 0 1 delete
09:33:38 60.403514 30.325492 0 0 0 0 1 delete
09:33:37 60.403517 30.325526 0 0 0 0 1 delete
09:33:36 60.403519 30.325560 0 0 0 0 1 delete
09:33:35 60.403521 30.325593 0 0 0 0 1 delete
09:33:34 60.403523 30.325626 0 0 0 0 1 delete
09:33:33 60.403525 30.325659 0 0 0 0 1 delete
09:33:32 60.403527 30.325692 0 0 0 0 1 delete
09:33:31 60.403527 30.325724 0 0 0 0 1 delete
09:33:30 60.403525 30.325756 0 0 0 0 1 delete
09:33:29 60.403522 30.325788 0 0 0 0 1 delete
09:33:28 60.403519 30.325820 0 0 0 0 1 delete
09:33:27 60.403518 30.325852 0 0 0 0 1 delete
09:33:26 60.403517 30.325883 0 0 0 0 1 delete
09:33:25 60.403514 30.325914 0 0 0 0 1 delete
09:33:24 60.403510 30.325944 0 0 0 0 1 delete